createdAt,value
2019-02-25T00:00:02.904Z,1053.83
2019-02-25T00:01:02.887Z,1053.78
2019-02-25T00:02:02.871Z,1053.78
2019-02-25T00:03:02.860Z,1053.77
2019-02-25T00:04:02.841Z,1053.79
2019-02-25T00:05:02.824Z,1053.73
2019-02-25T00:06:02.808Z,1053.73
2019-02-25T00:07:02.791Z,1053.76
2019-02-25T00:08:02.775Z,1053.7
2019-02-25T00:09:02.761Z,1053.74
2019-02-25T00:10:02.745Z,1053.73
2019-02-25T00:11:02.728Z,1053.77
2019-02-25T00:12:02.713Z,1053.79
2019-02-25T00:13:02.700Z,1053.79
2019-02-25T00:14:02.682Z,1053.79
2019-02-25T00:15:02.669Z,1053.79
2019-02-25T00:16:02.651Z,1053.79
2019-02-25T00:17:02.634Z,1053.77
2019-02-25T00:18:02.618Z,1053.8
2019-02-25T00:19:02.603Z,1053.78
2019-02-25T00:20:02.587Z,1053.77
2019-02-25T00:21:02.570Z,1053.77
2019-02-25T00:22:02.554Z,1053.81
2019-02-25T00:23:02.539Z,1053.83
2019-02-25T00:24:02.522Z,1053.8
2019-02-25T00:25:02.507Z,1053.82
2019-02-25T00:26:02.548Z,1053.81
2019-02-25T00:27:02.476Z,1053.85
2019-02-25T00:28:02.461Z,1053.8
2019-02-25T00:29:02.443Z,1053.8
2019-02-25T00:30:02.428Z,1053.82
2019-02-25T00:31:02.412Z,1053.85
2019-02-25T00:32:02.395Z,1053.84
2019-02-25T00:33:02.381Z,1053.81
2019-02-25T00:34:02.364Z,1053.82
2019-02-25T00:35:02.348Z,1053.81
2019-02-25T00:36:02.332Z,1053.76
2019-02-25T00:37:02.317Z,1053.76
2019-02-25T00:38:02.301Z,1053.65
2019-02-25T00:39:02.284Z,1053.73
2019-02-25T00:40:02.269Z,1053.69
2019-02-25T00:41:02.253Z,1053.7
2019-02-25T00:42:02.238Z,1053.67
2019-02-25T00:43:02.222Z,1053.7
2019-02-25T00:44:02.206Z,1053.73
2019-02-25T00:45:02.190Z,1053.69
2019-02-25T00:46:02.173Z,1053.7
2019-02-25T00:47:02.157Z,1053.71
2019-02-25T00:48:02.142Z,1053.71
2019-02-25T00:49:02.126Z,1053.74
2019-02-25T00:50:02.112Z,1053.71
2019-02-25T00:51:02.094Z,1053.69
2019-02-25T00:52:02.078Z,1053.67
2019-02-25T00:53:02.063Z,1053.66
2019-02-25T00:54:02.047Z,1053.68
2019-02-25T00:55:02.031Z,1053.67
2019-02-25T00:56:02.014Z,1053.68
2019-02-25T00:57:02.000Z,1053.68
2019-02-25T00:58:01.983Z,1053.65
2019-02-25T00:59:01.967Z,1053.69
2019-02-25T01:00:01.970Z,1053.69
2019-02-25T01:01:01.934Z,1053.68
2019-02-25T01:02:01.923Z,1053.68
2019-02-25T01:03:01.904Z,1053.76
2019-02-25T01:04:01.887Z,1053.73
2019-02-25T01:05:01.878Z,1053.75
2019-02-25T01:06:01.860Z,1053.79
2019-02-25T01:07:01.841Z,1053.78
2019-02-25T01:08:01.824Z,1053.76
2019-02-25T01:09:01.808Z,1053.74
2019-02-25T01:10:01.792Z,1053.69
2019-02-25T01:11:01.777Z,1053.66
2019-02-25T01:12:01.759Z,1053.64
2019-02-25T01:13:01.743Z,1053.64
2019-02-25T01:14:01.733Z,1053.68
2019-02-25T01:15:01.712Z,1053.74
2019-02-25T01:16:01.696Z,1053.72
2019-02-25T01:17:01.680Z,1053.75
2019-02-25T01:18:01.665Z,1053.72
2019-02-25T01:19:01.647Z,1053.68
2019-02-25T01:20:01.632Z,1053.69
2019-02-25T01:21:01.619Z,1053.63
2019-02-25T01:22:01.603Z,1053.67
2019-02-25T01:23:01.584Z,1053.65
2019-02-25T01:24:01.569Z,1053.6
2019-02-25T01:25:01.569Z,1053.62
2019-02-25T01:26:01.535Z,1053.62
2019-02-25T01:27:01.518Z,1053.62
2019-02-25T01:28:01.504Z,1053.63
2019-02-25T01:29:01.488Z,1053.61
2019-02-25T01:30:01.471Z,1053.67
2019-02-25T01:31:01.457Z,1053.69
2019-02-25T01:32:01.440Z,1053.75
2019-02-25T01:33:01.425Z,1053.8
2019-02-25T01:34:01.407Z,1053.81
2019-02-25T01:35:01.396Z,1053.82
2019-02-25T01:36:01.377Z,1053.84
2019-02-25T01:37:01.359Z,1053.85
2019-02-25T01:38:01.344Z,1053.85
2019-02-25T01:39:01.327Z,1053.88
2019-02-25T01:40:01.312Z,1053.89
2019-02-25T01:41:01.300Z,1053.83
2019-02-25T01:42:01.279Z,1053.83
2019-02-25T01:43:01.263Z,1053.8
2019-02-25T01:44:01.247Z,1053.8
2019-02-25T01:45:01.233Z,1053.78
2019-02-25T01:46:01.214Z,1053.79
2019-02-25T01:47:01.199Z,1053.78
2019-02-25T01:48:01.182Z,1053.79
2019-02-25T01:49:01.166Z,1053.78
2019-02-25T01:50:01.151Z,1053.8
2019-02-25T01:51:01.135Z,1053.81
2019-02-25T01:52:01.118Z,1053.85
2019-02-25T01:53:01.103Z,1053.85
2019-02-25T01:54:01.089Z,1053.82
2019-02-25T01:55:01.070Z,1053.86
2019-02-25T01:56:01.054Z,1053.9
2019-02-25T01:57:01.037Z,1053.91
2019-02-25T01:58:01.030Z,1053.94
2019-02-25T01:59:01.005Z,1053.95
2019-02-25T02:00:00.991Z,1053.93
2019-02-25T02:01:00.974Z,1053.95
2019-02-25T02:02:00.957Z,1053.96
2019-02-25T02:03:00.940Z,1053.96
2019-02-25T02:04:00.924Z,1053.95
2019-02-25T02:05:00.908Z,1053.97
2019-02-25T02:06:00.901Z,1053.99
2019-02-25T02:07:00.876Z,1054
2019-02-25T02:08:00.860Z,1053.97
2019-02-25T02:09:00.845Z,1053.99
2019-02-25T02:10:00.826Z,1053.94
2019-02-25T02:11:00.810Z,1053.93
2019-02-25T02:12:00.795Z,1053.91
2019-02-25T02:13:00.781Z,1053.89
2019-02-25T02:14:00.761Z,1053.9
2019-02-25T02:15:00.746Z,1053.94
2019-02-25T02:16:00.729Z,1053.9
2019-02-25T02:17:00.713Z,1053.93
2019-02-25T02:18:00.705Z,1053.94
2019-02-25T02:19:00.680Z,1053.9
2019-02-25T02:20:00.663Z,1053.95
2019-02-25T02:21:00.652Z,1053.97
2019-02-25T02:22:00.634Z,1053.99
2019-02-25T02:23:00.621Z,1054
2019-02-25T02:24:00.599Z,1054.01
2019-02-25T02:25:00.582Z,1053.99
2019-02-25T02:26:00.565Z,1053.96
2019-02-25T02:27:00.553Z,1053.95
2019-02-25T02:28:00.533Z,1053.89
2019-02-25T02:29:00.518Z,1053.86
2019-02-25T02:30:00.503Z,1053.81
2019-02-25T02:31:00.485Z,1053.8
2019-02-25T02:32:00.468Z,1053.81
2019-02-25T02:33:00.453Z,1053.84
2019-02-25T02:34:00.436Z,1053.81
2019-02-25T02:35:00.550Z,1053.8
2019-02-25T02:36:00.402Z,1053.8
2019-02-25T02:37:00.386Z,1053.81
2019-02-25T02:38:00.370Z,1053.8
2019-02-25T02:39:00.356Z,1053.81
2019-02-25T02:40:00.470Z,1053.73
2019-02-25T02:41:00.321Z,1053.75
2019-02-25T02:42:00.304Z,1053.74
2019-02-25T02:43:00.286Z,1053.72
2019-02-25T02:44:00.270Z,1053.69
2019-02-25T02:45:00.326Z,1053.68
2019-02-25T02:46:00.239Z,1053.67
2019-02-25T02:47:00.221Z,1053.68
2019-02-25T02:48:00.207Z,1053.7
2019-02-25T02:49:00.191Z,1053.72
2019-02-25T02:50:00.282Z,1053.7
2019-02-25T02:51:00.155Z,1053.67
2019-02-25T02:52:00.138Z,1053.64
2019-02-25T02:53:00.121Z,1053.56
2019-02-25T02:54:00.105Z,1053.49
2019-02-25T02:55:00.092Z,1053.48
2019-02-25T02:56:00.076Z,1053.45
2019-02-25T02:57:00.056Z,1053.42
2019-02-25T02:58:00.038Z,1053.45
2019-02-25T02:59:00.022Z,1053.43
2019-02-25T03:00:00.006Z,1053.43
2019-02-25T03:00:59.988Z,1053.46
2019-02-25T03:01:59.973Z,1053.44
2019-02-25T03:02:59.955Z,1053.44
2019-02-25T03:03:59.940Z,1053.43
2019-02-25T03:04:59.922Z,1053.44
2019-02-25T03:05:59.912Z,1053.45
2019-02-25T03:06:59.890Z,1053.39
2019-02-25T03:07:59.875Z,1053.41
2019-02-25T03:08:59.857Z,1053.42
2019-02-25T03:09:59.841Z,1053.47
2019-02-25T03:10:59.825Z,1053.38
2019-02-25T03:11:59.807Z,1053.38
2019-02-25T03:12:59.791Z,1053.4
2019-02-25T03:13:59.775Z,1053.37
2019-02-25T03:14:59.759Z,1053.36
2019-02-25T03:15:59.741Z,1053.36
2019-02-25T03:16:59.725Z,1053.36
2019-02-25T03:17:59.712Z,1053.37
2019-02-25T03:18:59.692Z,1053.34
2019-02-25T03:19:59.677Z,1053.36
2019-02-25T03:20:59.674Z,1053.39
2019-02-25T03:21:59.644Z,1053.45
2019-02-25T03:22:59.626Z,1053.44
2019-02-25T03:23:59.611Z,1053.42
2019-02-25T03:24:59.595Z,1053.43
2019-02-25T03:25:59.579Z,1053.41
2019-02-25T03:26:59.562Z,1053.44
2019-02-25T03:27:59.546Z,1053.44
2019-02-25T03:28:59.531Z,1053.48
2019-02-25T03:29:59.514Z,1053.49
2019-02-25T03:30:59.498Z,1053.49
2019-02-25T03:31:59.482Z,1053.53
2019-02-25T03:32:59.472Z,1053.56
2019-02-25T03:33:59.449Z,1053.54
2019-02-25T03:34:59.434Z,1053.51
2019-02-25T03:35:59.415Z,1053.47
2019-02-25T03:36:59.405Z,1053.5
2019-02-25T03:37:59.382Z,1053.46
2019-02-25T03:38:59.367Z,1053.46
2019-02-25T03:39:59.351Z,1053.47
2019-02-25T03:40:59.336Z,1053.48
2019-02-25T03:41:59.317Z,1053.45
2019-02-25T03:42:59.301Z,1053.45
2019-02-25T03:43:59.286Z,1053.44
2019-02-25T03:44:59.269Z,1053.42
2019-02-25T03:45:59.253Z,1053.38
2019-02-25T03:46:59.237Z,1053.4
2019-02-25T03:47:59.220Z,1053.36
2019-02-25T03:48:59.203Z,1053.35
2019-02-25T03:49:59.188Z,1053.41
2019-02-25T03:50:59.178Z,1053.43
2019-02-25T03:51:59.158Z,1053.44
2019-02-25T03:52:59.140Z,1053.51
2019-02-25T03:53:59.123Z,1053.48
2019-02-25T03:54:59.106Z,1053.52
2019-02-25T03:55:59.090Z,1053.49
2019-02-25T03:56:59.074Z,1053.55
2019-02-25T03:57:59.058Z,1053.53
2019-02-25T03:58:59.042Z,1053.51
2019-02-25T03:59:59.026Z,1053.43
2019-02-25T04:00:59.008Z,1053.39
2019-02-25T04:01:58.993Z,1053.35
2019-02-25T04:02:58.982Z,1053.28
2019-02-25T04:03:58.962Z,1053.32
2019-02-25T04:04:58.944Z,1053.31
2019-02-25T04:05:58.929Z,1053.35
2019-02-25T04:06:58.911Z,1053.39
2019-02-25T04:07:58.895Z,1053.42
2019-02-25T04:08:58.879Z,1053.48
2019-02-25T04:09:58.865Z,1053.43
2019-02-25T04:10:58.847Z,1053.5
2019-02-25T04:11:58.830Z,1053.51
2019-02-25T04:12:58.814Z,1053.51
2019-02-25T04:13:58.798Z,1053.47
2019-02-25T04:14:58.781Z,1053.55
2019-02-25T04:15:58.765Z,1053.5
2019-02-25T04:16:58.747Z,1053.51
2019-02-25T04:17:58.733Z,1053.48
2019-02-25T04:18:58.717Z,1053.48
2019-02-25T04:19:58.699Z,1053.53
2019-02-25T04:20:58.683Z,1053.54
2019-02-25T04:21:58.667Z,1053.56
2019-02-25T04:22:58.654Z,1053.57
2019-02-25T04:23:58.636Z,1053.49
2019-02-25T04:24:58.617Z,1053.51
2019-02-25T04:25:58.601Z,1053.49
2019-02-25T04:26:58.585Z,1053.49
2019-02-25T04:27:58.569Z,1053.51
2019-02-25T04:28:58.551Z,1053.56
2019-02-25T04:29:58.536Z,1053.54
2019-02-25T04:30:58.520Z,1053.57
2019-02-25T04:31:58.505Z,1053.6
2019-02-25T04:32:58.487Z,1053.59
2019-02-25T04:33:58.471Z,1053.55
2019-02-25T04:34:58.454Z,1053.56
2019-02-25T04:35:58.437Z,1053.5
2019-02-25T04:36:58.421Z,1053.51
2019-02-25T04:37:58.405Z,1053.52
2019-02-25T04:38:58.388Z,1053.46
2019-02-25T04:39:58.371Z,1053.48
2019-02-25T04:40:58.365Z,1053.47
2019-02-25T04:41:58.338Z,1053.47
2019-02-25T04:42:58.323Z,1053.49
2019-02-25T04:43:58.305Z,1053.53
2019-02-25T04:44:58.289Z,1053.48
2019-02-25T04:45:58.272Z,1053.45
2019-02-25T04:46:58.255Z,1053.48
2019-02-25T04:47:58.239Z,1053.48
2019-02-25T04:48:58.222Z,1053.48
2019-02-25T04:49:58.206Z,1053.53
2019-02-25T04:50:58.189Z,1053.5
2019-02-25T04:51:58.172Z,1053.55
2019-02-25T04:52:58.158Z,1053.56
2019-02-25T04:53:58.141Z,1053.6
2019-02-25T04:54:58.123Z,1053.67
2019-02-25T04:55:58.108Z,1053.74
2019-02-25T04:56:58.090Z,1053.84
2019-02-25T04:57:58.079Z,1053.89
2019-02-25T04:58:58.056Z,1053.99
2019-02-25T04:59:58.041Z,1054.02
2019-02-25T05:00:58.023Z,1054.11
2019-02-25T05:01:58.006Z,1054.13
2019-02-25T05:02:57.990Z,1054.14
2019-02-25T05:03:57.974Z,1054.14
2019-02-25T05:04:57.957Z,1054.11
2019-02-25T05:05:57.947Z,1054.1
2019-02-25T05:06:57.924Z,1054.1
2019-02-25T05:07:57.907Z,1054.09
2019-02-25T05:08:57.888Z,1054.08
2019-02-25T05:09:57.873Z,1054.09
2019-02-25T05:10:57.857Z,1054.09
2019-02-25T05:11:57.842Z,1054.15
2019-02-25T05:12:57.825Z,1054.12
2019-02-25T05:13:57.807Z,1054.13
2019-02-25T05:14:57.791Z,1054.12
2019-02-25T05:15:57.774Z,1054.08
2019-02-25T05:16:57.758Z,1054.03
2019-02-25T05:17:57.740Z,1054.03
2019-02-25T05:18:57.726Z,1054
2019-02-25T05:19:57.706Z,1054.02
2019-02-25T05:20:57.691Z,1054.03
2019-02-25T05:21:57.674Z,1054.05
2019-02-25T05:22:57.658Z,1054.04
2019-02-25T05:23:57.640Z,1054.07
2019-02-25T05:24:57.623Z,1054.08
2019-02-25T05:25:57.607Z,1054.11
2019-02-25T05:26:57.591Z,1054.17
2019-02-25T05:27:57.574Z,1054.19
2019-02-25T05:28:57.556Z,1054.21
2019-02-25T05:29:57.547Z,1054.18
2019-02-25T05:30:57.528Z,1054.2
2019-02-25T05:31:57.506Z,1054.18
2019-02-25T05:32:57.491Z,1054.17
2019-02-25T05:33:57.475Z,1054.18
2019-02-25T05:34:57.454Z,1054.15
2019-02-25T05:35:57.439Z,1054.18
2019-02-25T05:36:57.422Z,1054.18
2019-02-25T05:37:57.409Z,1054.14
2019-02-25T05:38:58.719Z,1054.12
2019-02-25T05:39:57.372Z,1054.09
2019-02-25T05:40:57.361Z,1054.14
2019-02-25T05:41:57.338Z,1054.17
2019-02-25T05:42:57.323Z,1054.18
2019-02-25T05:43:57.306Z,1054.22
2019-02-25T05:44:57.289Z,1054.17
2019-02-25T05:45:57.271Z,1054.18
2019-02-25T05:46:57.254Z,1054.22
2019-02-25T05:47:57.237Z,1054.18
2019-02-25T05:48:57.221Z,1054.23
2019-02-25T05:49:57.203Z,1054.26
2019-02-25T05:50:57.187Z,1054.26
2019-02-25T05:51:57.175Z,1054.32
2019-02-25T05:52:57.152Z,1054.36
2019-02-25T05:53:57.135Z,1054.37
2019-02-25T05:54:57.120Z,1054.38
2019-02-25T05:55:57.102Z,1054.42
2019-02-25T05:56:57.084Z,1054.43
2019-02-25T05:57:57.069Z,1054.37
2019-02-25T05:58:57.051Z,1054.34
2019-02-25T05:59:57.041Z,1054.34
2019-02-25T06:00:57.021Z,1054.34
2019-02-25T06:01:57.003Z,1054.32
2019-02-25T06:02:56.995Z,1054.34
2019-02-25T06:03:56.973Z,1054.35
2019-02-25T06:04:56.950Z,1054.35
2019-02-25T06:05:56.933Z,1054.34
2019-02-25T06:06:56.915Z,1054.34
2019-02-25T06:07:56.899Z,1054.35
2019-02-25T06:08:56.882Z,1054.34
2019-02-25T06:09:56.865Z,1054.39
2019-02-25T06:10:56.846Z,1054.36
2019-02-25T06:11:56.834Z,1054.32
2019-02-25T06:12:56.813Z,1054.37
2019-02-25T06:13:56.797Z,1054.34
2019-02-25T06:14:56.831Z,1054.34
2019-02-25T06:15:56.766Z,1054.31
2019-02-25T06:16:56.746Z,1054.3
2019-02-25T06:17:56.730Z,1054.26
2019-02-25T06:18:56.712Z,1054.19
2019-02-25T06:19:56.695Z,1054.2
2019-02-25T06:20:56.682Z,1054.18
2019-02-25T06:21:56.661Z,1054.15
2019-02-25T06:22:56.646Z,1054.1
2019-02-25T06:23:56.628Z,1054.03
2019-02-25T06:24:56.611Z,1054.07
2019-02-25T06:25:56.593Z,1054.02
2019-02-25T06:26:56.577Z,1054.01
2019-02-25T06:27:56.560Z,1053.94
2019-02-25T06:28:56.543Z,1053.97
2019-02-25T06:29:56.526Z,1053.86
2019-02-25T06:30:56.509Z,1053.84
2019-02-25T06:31:56.494Z,1053.8
2019-02-25T06:32:56.476Z,1053.75
2019-02-25T06:33:56.460Z,1053.69
2019-02-25T06:34:56.445Z,1053.64
2019-02-25T06:35:56.428Z,1053.59
2019-02-25T06:36:56.411Z,1053.52
2019-02-25T06:37:56.395Z,1053.47
2019-02-25T06:38:56.379Z,1053.4
2019-02-25T06:39:56.364Z,1053.33
2019-02-25T06:40:56.345Z,1053.27
2019-02-25T06:41:56.330Z,1053.24
2019-02-25T06:42:56.313Z,1053.18
2019-02-25T06:43:56.295Z,1053.13
2019-02-25T06:44:56.280Z,1053.09
2019-02-25T06:45:56.264Z,1052.98
2019-02-25T06:46:56.248Z,1052.92
2019-02-25T06:47:56.232Z,1052.87
2019-02-25T06:48:56.216Z,1052.79
2019-02-25T06:49:56.201Z,1052.74
2019-02-25T06:50:56.185Z,1052.72
2019-02-25T06:51:56.168Z,1052.71
2019-02-25T06:52:56.153Z,1052.67
2019-02-25T06:53:56.138Z,1052.64
2019-02-25T06:54:56.121Z,1052.55
2019-02-25T06:55:56.108Z,1052.45
2019-02-25T06:56:56.092Z,1052.34
2019-02-25T06:57:56.077Z,1052.19
2019-02-25T06:58:56.061Z,1052.11
2019-02-25T06:59:56.046Z,1051.95
2019-02-25T07:00:56.034Z,1051.82
2019-02-25T07:01:56.017Z,1051.73
2019-02-25T07:02:56.002Z,1051.54
2019-02-25T07:03:55.988Z,1051.39
2019-02-25T07:04:55.973Z,1051.24
2019-02-25T07:05:55.958Z,1051.06
2019-02-25T07:06:55.944Z,1050.97
2019-02-25T07:07:55.930Z,1050.78
2019-02-25T07:08:55.915Z,1050.62
2019-02-25T07:09:55.901Z,1050.49
2019-02-25T07:10:55.887Z,1050.4
2019-02-25T07:11:55.875Z,1050.29
2019-02-25T07:12:55.862Z,1050.2
2019-02-25T07:13:55.848Z,1050.1
2019-02-25T07:14:55.835Z,1049.94
2019-02-25T07:15:55.823Z,1049.82
2019-02-25T07:16:57.237Z,1049.6
2019-02-25T07:17:55.799Z,1049.49
2019-02-25T07:18:55.784Z,1049.35
2019-02-25T07:19:55.773Z,1049.16
2019-02-25T07:20:55.759Z,1048.98
2019-02-25T07:21:55.749Z,1048.89
2019-02-25T07:22:55.735Z,1048.78
2019-02-25T07:23:55.723Z,1048.68
2019-02-25T07:24:55.711Z,1048.62
2019-02-25T07:25:55.701Z,1048.54
2019-02-25T07:26:55.687Z,1048.49
2019-02-25T07:27:55.676Z,1048.44
2019-02-25T07:28:55.666Z,1048.43
2019-02-25T07:29:55.654Z,1048.43
2019-02-25T07:30:55.644Z,1048.39
2019-02-25T07:31:55.632Z,1048.38
2019-02-25T07:32:55.622Z,1048.35
2019-02-25T07:33:55.610Z,1048.27
2019-02-25T07:34:55.600Z,1048.26
2019-02-25T07:35:55.590Z,1048.23
2019-02-25T07:36:55.580Z,1048.19
2019-02-25T07:37:55.570Z,1048.2
2019-02-25T07:38:55.558Z,1048.18
2019-02-25T07:39:55.548Z,1048.17
2019-02-25T07:40:55.539Z,1048.18
2019-02-25T07:41:55.529Z,1048.22
2019-02-25T07:42:55.518Z,1048.19
2019-02-25T07:43:55.508Z,1048.16
2019-02-25T07:44:55.499Z,1048.16
2019-02-25T07:45:55.487Z,1048.14
2019-02-25T07:46:55.478Z,1048.18
2019-02-25T07:47:55.469Z,1048.15
2019-02-25T07:48:55.460Z,1048.09
2019-02-25T07:49:55.451Z,1048.04
2019-02-25T07:50:55.440Z,1048.01
2019-02-25T07:51:55.430Z,1047.99
2019-02-25T07:52:55.421Z,1047.93
2019-02-25T07:53:55.411Z,1047.9
2019-02-25T07:54:55.403Z,1048.05
2019-02-25T07:56:02.057Z,1048.27
2019-02-25T07:56:55.383Z,1048.55
2019-02-25T07:57:55.374Z,1048.81
2019-02-25T07:58:55.367Z,1048.94
2019-02-25T07:59:55.355Z,1049.14
2019-02-25T08:00:55.346Z,1049.29
2019-02-25T08:01:55.336Z,1049.48
2019-02-25T08:02:55.329Z,1049.67
2019-02-25T08:03:55.318Z,1049.75
2019-02-25T08:04:55.307Z,1049.86
2019-02-25T08:05:55.297Z,1049.94
2019-02-25T08:06:55.288Z,1049.93
2019-02-25T08:07:55.277Z,1049.98
2019-02-25T08:08:55.267Z,1049.98
2019-02-25T08:09:55.257Z,1050
2019-02-25T08:10:55.246Z,1050.07
2019-02-25T08:11:55.236Z,1050.12
2019-02-25T08:12:55.226Z,1050.12
2019-02-25T08:13:55.215Z,1050.2
2019-02-25T08:14:55.206Z,1050.2
2019-02-25T08:15:55.194Z,1050.29
2019-02-25T08:16:55.183Z,1050.35
2019-02-25T08:17:55.174Z,1050.37
2019-02-25T08:18:55.160Z,1050.4
2019-02-25T08:19:55.151Z,1050.44
2019-02-25T08:20:55.140Z,1050.44
2019-02-25T08:21:55.130Z,1050.45
2019-02-25T08:22:55.118Z,1050.43
2019-02-25T08:23:55.107Z,1050.42
2019-02-25T08:24:55.100Z,1050.43
2019-02-25T08:25:55.086Z,1050.37
2019-02-25T08:26:55.076Z,1050.36
2019-02-25T08:27:55.063Z,1050.32
2019-02-25T08:28:55.052Z,1050.33
2019-02-25T08:29:55.040Z,1050.33
2019-02-25T08:30:55.029Z,1050.32
2019-02-25T08:31:55.017Z,1050.34
2019-02-25T08:32:55.007Z,1050.33
2019-02-25T08:33:55.554Z,1050.34
2019-02-25T08:34:54.984Z,1050.26
2019-02-25T08:35:54.973Z,1050.28
2019-02-25T08:37:02.106Z,1050.28
2019-02-25T08:37:54.951Z,1050.26
2019-02-25T08:38:54.939Z,1050.32
2019-02-25T08:39:54.928Z,1050.28
2019-02-25T08:40:54.919Z,1050.27
2019-02-25T08:41:54.911Z,1050.25
2019-02-25T08:42:54.895Z,1050.26
2019-02-25T08:43:54.883Z,1050.21
2019-02-25T08:44:54.874Z,1050.24
2019-02-25T08:45:54.861Z,1050.2
2019-02-25T08:46:54.850Z,1050.21
2019-02-25T08:47:54.839Z,1050.16
2019-02-25T08:48:54.828Z,1050.19
2019-02-25T08:49:54.817Z,1050.17
2019-02-25T08:50:56.220Z,1050.19
2019-02-25T08:51:54.794Z,1050.21
2019-02-25T08:52:54.783Z,1050.21
2019-02-25T08:53:54.774Z,1050.12
2019-02-25T08:54:54.761Z,1050.19
2019-02-25T08:55:54.752Z,1050.17
2019-02-25T08:56:54.740Z,1050.15
2019-02-25T08:57:54.727Z,1050.16
2019-02-25T08:58:54.717Z,1050.15
2019-02-25T08:59:54.705Z,1050.16
2019-02-25T09:00:54.694Z,1050.21
2019-02-25T09:01:54.683Z,1050.21
2019-02-25T09:02:54.672Z,1050.21
2019-02-25T09:03:54.660Z,1050.21
2019-02-25T09:04:54.650Z,1050.21
2019-02-25T09:05:54.639Z,1050.22
2019-02-25T09:06:54.627Z,1050.18
2019-02-25T09:07:54.616Z,1050.18
2019-02-25T09:08:54.605Z,1050.18
2019-02-25T09:09:54.593Z,1050.15
2019-02-25T09:10:54.583Z,1050.16
2019-02-25T09:11:54.571Z,1050.22
2019-02-25T09:12:54.561Z,1050.2
2019-02-25T09:13:54.548Z,1050.19
2019-02-25T09:14:54.538Z,1050.21
2019-02-25T09:15:54.527Z,1050.23
2019-02-25T09:16:54.517Z,1050.22
2019-02-25T09:17:54.505Z,1050.24
2019-02-25T09:18:54.503Z,1050.27
2019-02-25T09:19:54.483Z,1050.22
2019-02-25T09:20:54.471Z,1050.27
2019-02-25T09:21:54.462Z,1050.22
2019-02-25T09:22:54.451Z,1050.25
2019-02-25T09:23:54.440Z,1050.25
2019-02-25T09:24:54.427Z,1050.2
2019-02-25T09:25:54.417Z,1050.17
2019-02-25T09:26:54.406Z,1050.09
2019-02-25T09:27:54.397Z,1050.02
2019-02-25T09:28:54.384Z,1049.99
2019-02-25T09:29:54.377Z,1050.02
2019-02-25T09:30:54.363Z,1049.97
2019-02-25T09:31:54.357Z,1049.94
2019-02-25T09:32:54.341Z,1049.88
2019-02-25T09:33:54.330Z,1049.9
2019-02-25T09:34:54.320Z,1049.84
2019-02-25T09:35:54.317Z,1049.9
2019-02-25T09:36:54.298Z,1049.85
2019-02-25T09:37:54.286Z,1049.89
2019-02-25T09:38:54.276Z,1049.83
2019-02-25T09:39:54.266Z,1049.8
2019-02-25T09:40:54.255Z,1049.76
2019-02-25T09:41:54.245Z,1049.74
2019-02-25T09:42:54.234Z,1049.75
2019-02-25T09:43:54.223Z,1049.68
2019-02-25T09:44:54.213Z,1049.63
2019-02-25T09:45:54.204Z,1049.6
2019-02-25T09:46:54.193Z,1049.62
2019-02-25T09:47:54.182Z,1049.56
2019-02-25T09:48:54.172Z,1049.53
2019-02-25T09:49:54.161Z,1049.45
2019-02-25T09:50:54.153Z,1049.44
2019-02-25T09:51:54.140Z,1049.38
2019-02-25T09:52:54.130Z,1049.37
2019-02-25T09:53:54.122Z,1049.32
2019-02-25T09:54:54.109Z,1049.25
2019-02-25T09:55:54.101Z,1049.17
2019-02-25T09:56:54.089Z,1049.16
2019-02-25T09:57:54.078Z,1049.15
2019-02-25T09:58:54.069Z,1049.11
2019-02-25T09:59:54.058Z,1049.17
2019-02-25T10:00:54.054Z,1049.15
2019-02-25T10:01:54.039Z,1049.12
2019-02-25T10:02:54.034Z,1049.01
2019-02-25T10:03:54.019Z,1049
2019-02-25T10:04:54.008Z,1048.99
2019-02-25T10:05:53.999Z,1048.97
2019-02-25T10:07:02.104Z,1048.97
2019-02-25T10:07:53.980Z,1048.88
2019-02-25T10:08:53.970Z,1048.86
2019-02-25T10:09:53.960Z,1048.84
2019-02-25T10:10:53.953Z,1048.85
2019-02-25T10:11:53.941Z,1048.79
2019-02-25T10:12:53.931Z,1048.78
2019-02-25T10:13:53.921Z,1048.7
2019-02-25T10:14:53.912Z,1048.67
2019-02-25T10:15:53.906Z,1048.63
2019-02-25T10:16:54.052Z,1048.55
2019-02-25T10:17:53.885Z,1048.51
2019-02-25T10:18:53.875Z,1048.46
2019-02-25T10:19:53.864Z,1048.43
2019-02-25T10:20:53.855Z,1048.44
2019-02-25T10:21:53.849Z,1048.44
2019-02-25T10:22:53.837Z,1048.38
2019-02-25T10:23:53.828Z,1048.36
2019-02-25T10:24:53.818Z,1048.3
2019-02-25T10:25:53.810Z,1048.31
2019-02-25T10:26:53.802Z,1048.29
2019-02-25T10:27:53.791Z,1048.27
2019-02-25T10:28:53.782Z,1048.32
2019-02-25T10:29:53.773Z,1048.32
2019-02-25T10:30:53.764Z,1048.31
2019-02-25T10:31:53.755Z,1048.29
2019-02-25T10:32:53.745Z,1048.29
2019-02-25T10:33:53.736Z,1048.34
2019-02-25T10:34:53.727Z,1048.34
2019-02-25T10:35:53.718Z,1048.37
2019-02-25T10:36:53.710Z,1048.32
2019-02-25T10:37:53.701Z,1048.37
2019-02-25T10:38:53.747Z,1048.35
2019-02-25T10:39:53.683Z,1048.34
2019-02-25T10:40:53.934Z,1048.36
2019-02-25T10:41:55.439Z,1048.34
2019-02-25T10:42:53.655Z,1048.32
2019-02-25T10:43:53.645Z,1048.3
2019-02-25T10:44:53.637Z,1048.25
2019-02-25T10:45:53.628Z,1048.19
2019-02-25T10:46:53.619Z,1048.13
2019-02-25T10:47:57.722Z,1048.09
2019-02-25T10:48:54.824Z,1048.03
2019-02-25T10:49:53.593Z,1048.02
2019-02-25T10:50:55.888Z,1048.05
2019-02-25T10:51:53.576Z,1048.02
2019-02-25T10:53:02.916Z,1047.96
2019-02-25T10:53:53.704Z,1047.93
2019-02-25T10:54:54.069Z,1047.91
2019-02-25T10:55:53.539Z,1047.9
2019-02-25T10:56:54.223Z,1047.84
2019-02-25T10:57:55.264Z,1047.81
2019-02-25T10:58:53.514Z,1047.79
2019-02-25T10:59:53.506Z,1047.8
2019-02-25T11:00:53.495Z,1047.79
2019-02-25T11:01:53.487Z,1047.78
2019-02-25T11:02:55.678Z,1047.79
2019-02-25T11:03:54.263Z,1047.8
2019-02-25T11:04:54.010Z,1047.82
2019-02-25T11:05:53.934Z,1047.86
2019-02-25T11:06:53.442Z,1047.87
2019-02-25T11:07:53.684Z,1047.88
2019-02-25T11:08:53.425Z,1047.86
2019-02-25T11:09:53.418Z,1047.87
2019-02-25T11:10:54.913Z,1047.83
2019-02-25T11:11:55.331Z,1047.81
2019-02-25T11:12:55.311Z,1047.8
2019-02-25T11:13:53.382Z,1047.79
2019-02-25T11:14:53.370Z,1047.78
2019-02-25T11:15:53.363Z,1047.74
2019-02-25T11:16:53.354Z,1047.71
2019-02-25T11:17:53.887Z,1047.67
2019-02-25T11:18:54.885Z,1047.68
2019-02-25T11:19:54.848Z,1047.67
2019-02-25T11:20:53.320Z,1047.64
2019-02-25T11:21:53.311Z,1047.59
2019-02-25T11:22:53.302Z,1047.52
2019-02-25T11:23:53.458Z,1047.49
2019-02-25T11:24:53.412Z,1047.56
2019-02-25T11:25:53.626Z,1047.52
2019-02-25T11:26:53.268Z,1047.47
2019-02-25T11:27:53.260Z,1047.48
2019-02-25T11:28:53.250Z,1047.42
2019-02-25T11:29:53.241Z,1047.43
2019-02-25T11:30:53.731Z,1047.43
2019-02-25T11:31:53.908Z,1047.44
2019-02-25T11:32:55.145Z,1047.42
2019-02-25T11:33:53.208Z,1047.39
2019-02-25T11:34:53.202Z,1047.34
2019-02-25T11:35:53.193Z,1047.32
2019-02-25T11:36:55.311Z,1047.35
2019-02-25T11:37:54.661Z,1047.35
2019-02-25T11:38:53.169Z,1047.32
2019-02-25T11:39:54.854Z,1047.35
2019-02-25T11:40:53.149Z,1047.31
2019-02-25T11:41:53.142Z,1047.28
2019-02-25T11:42:53.133Z,1047.24
2019-02-25T11:43:55.116Z,1047.23
2019-02-25T11:44:54.184Z,1047.17
2019-02-25T11:45:53.107Z,1047.2
2019-02-25T11:46:53.099Z,1047.19
2019-02-25T11:47:53.090Z,1047.14
2019-02-25T11:48:53.082Z,1047.11
2019-02-25T11:49:53.074Z,1047.07
2019-02-25T11:50:53.065Z,1047.07
2019-02-25T11:51:53.057Z,1047.06
2019-02-25T11:52:53.048Z,1047
2019-02-25T11:53:53.041Z,1047.02
2019-02-25T11:54:53.031Z,1046.97
2019-02-25T11:55:53.023Z,1046.99
2019-02-25T11:56:53.016Z,1046.99
2019-02-25T11:57:53.007Z,1046.95
2019-02-25T11:58:52.999Z,1046.88
2019-02-25T11:59:52.993Z,1046.87
2019-02-25T12:00:52.984Z,1046.84
2019-02-25T12:01:52.974Z,1046.83
2019-02-25T12:02:52.966Z,1046.77
2019-02-25T12:03:52.958Z,1046.73
2019-02-25T12:04:52.952Z,1046.7
2019-02-25T12:05:52.944Z,1046.66
2019-02-25T12:06:52.932Z,1046.66
2019-02-25T12:07:52.927Z,1046.61